首页
METAR-TAF:

METAR-TAF

机场 :

Sanikiluaq, 努那武特, 加拿大

纬度: 56-32N, 经度: 079-15W, 海拔: 32米

当前天气观测

该预报发布于57分钟前的20:00 UTC
风速20节,风向,有时为25节阵风
温度 -3°C
湿度 93%
气压 1008 hPa
能見度: 16.1公里
阴天层高于1000英尺
低吹雪

METAR: CYSK 132000Z 19020G25KT 10SM DRSN OVC010 M03/M04 A2978 RMK SF8 SLP090

时间: 15:57 (20:57 UTC)


TAF: 丢失

超过4000个机场的气象观测和天气预报(METAR&TAF报告)。

可查询的气象台以黄色和红色小点在地图上表示。

将鼠标移到小点上方,可查看气象台名称。

然后点击查看天气观测和预报。

如需切换地图:点击带黑十字的绿色按钮放大地图;点击带横线的绿色按钮缩小地图;或者点击绿色箭头查看邻近地区的地图。


METAR-TAF: